Time;durP1;ratioP1;P1;durP2;ratioP2;P2;SDS_P1;SDS_P2;PMS_P1;PMS_P2;Temp;Humidity;BMP_temperature;BMP_pressure;BME280_temperature;BME280_humidity;BME280_pressure;Samples;Min_cycle;Max_cycle;Signal;HPM_P1;HPM_P2
2021/03/30 00:00:09;;;;;;;8.70;2.63;;;14.90;54.00;;;;;;4994668;28;20081;-77
2021/03/30 00:02:35;;;;;;;7.95;3.63;;;14.80;54.00;;;;;;4994819;28;20142;-76
2021/03/30 00:05:01;;;;;;;9.35;3.88;;;14.90;54.30;;;;;;4995236;28;20125;-75
2021/03/30 00:07:27;;;;;;;9.30;3.38;;;14.80;54.30;;;;;;4996335;28;20042;-75
2021/03/30 00:09:53;;;;;;;8.05;3.10;;;14.80;54.60;;;;;;4977867;28;20041;-75
2021/03/30 00:12:19;;;;;;;11.93;3.63;;;14.90;54.80;;;;;;4995609;28;20046;-75
2021/03/30 00:14:45;;;;;;;8.90;3.20;;;14.90;55.00;;;;;;4995628;28;20042;-75
2021/03/30 00:17:11;;;;;;;9.75;3.80;;;14.90;55.00;;;;;;4978350;28;20049;-76
2021/03/30 00:19:37;;;;;;;12.35;4.05;;;14.90;55.20;;;;;;4995864;28;20491;-76
2021/03/30 00:22:03;;;;;;;7.80;3.92;;;14.90;55.30;;;;;;4995598;28;20105;-76
2021/03/30 00:24:28;;;;;;;7.30;3.20;;;14.90;55.30;;;;;;4994220;28;20038;-76
2021/03/30 00:26:54;;;;;;;13.05;4.50;;;14.90;55.40;;;;;;4994832;28;20133;-76
2021/03/30 00:29:20;;;;;;;7.70;3.50;;;14.90;55.60;;;;;;4995400;28;20035;-75
2021/03/30 00:31:46;;;;;;;8.98;3.28;;;14.90;55.70;;;;;;4995453;28;20113;-75
2021/03/30 00:34:12;;;;;;;12.02;3.72;;;14.90;55.80;;;;;;4995267;28;20080;-75
2021/03/30 00:36:37;;;;;;;11.20;4.63;;;14.90;55.90;;;;;;4995591;28;20088;-75
2021/03/30 00:39:04;;;;;;;8.07;3.60;;;14.90;55.80;;;;;;4995240;28;20126;-75
2021/03/30 00:41:30;;;;;;;9.68;3.20;;;14.90;55.90;;;;;;4974351;28;20590;-74
2021/03/30 00:43:55;;;;;;;7.03;3.53;;;14.90;56.10;;;;;;4976003;28;20042;-76
2021/03/30 00:46:24;;;;;;;10.38;3.47;;;14.90;56.20;;;;;;4976314;28;20089;-75
2021/03/30 00:48:51;;;;;;;10.18;3.55;;;14.90;56.10;;;;;;4976060;28;20114;-75
2021/03/30 00:51:18;;;;;;;7.30;3.33;;;14.80;56.30;;;;;;4974883;28;20129;-75
2021/03/30 00:53:44;;;;;;;9.73;3.78;;;14.80;56.40;;;;;;4976018;28;20550;-75
2021/03/30 00:56:11;;;;;;;9.13;3.88;;;14.80;56.60;;;;;;4991034;28;20051;-76
2021/03/30 00:58:37;;;;;;;10.55;4.93;;;14.70;56.70;;;;;;4975981;28;20070;-75
2021/03/30 01:01:03;;;;;;;10.50;3.47;;;14.60;57.00;;;;;;4975813;28;20444;-75
2021/03/30 01:03:29;;;;;;;10.25;3.85;;;14.60;57.10;;;;;;4974677;28;20492;-75
2021/03/30 01:05:55;;;;;;;6.50;3.60;;;14.50;57.30;;;;;;4975844;28;20051;-75
2021/03/30 01:08:57;;;;;;;13.35;4.35;;;14.50;57.50;;;;;;4975619;28;20455;-75
2021/03/30 01:12:07;;;;;;;12.75;4.25;;;14.40;57.60;;;;;;4973922;28;20381;-75
2021/03/30 01:14:44;;;;;;;10.27;3.72;;;14.40;58.00;;;;;;4975603;28;20039;-75
2021/03/30 01:17:22;;;;;;;12.52;3.58;;;14.30;58.30;;;;;;4975371;28;20039;-75
2021/03/30 01:20:23;;;;;;;12.23;4.15;;;14.30;58.50;;;;;;4975735;28;20035;-75
2021/03/30 01:23:27;;;;;;;7.25;3.70;;;14.30;58.70;;;;;;4955051;28;20051;-75
2021/03/30 01:26:17;;;;;;;7.40;3.80;;;14.30;58.80;;;;;;4975343;28;20064;-75
2021/03/30 01:29:10;;;;;;;9.88;4.00;;;14.30;59.10;;;;;;4975418;28;20045;-75
2021/03/30 01:31:37;;;;;;;9.60;3.60;;;14.20;59.20;;;;;;4975777;28;20557;-77
2021/03/30 01:34:04;;;;;;;7.93;3.75;;;14.10;59.30;;;;;;4975377;28;20043;-75
2021/03/30 01:36:33;;;;;;;10.10;3.78;;;14.10;59.70;;;;;;4974122;28;20595;-75
2021/03/30 01:39:01;;;;;;;8.80;4.03;;;14.00;60.00;;;;;;4975169;28;20047;-76
2021/03/30 01:41:28;;;;;;;10.32;3.90;;;14.00;60.30;;;;;;4990267;28;20051;-76
2021/03/30 01:43:55;;;;;;;10.50;4.00;;;14.00;60.60;;;;;;4994464;28;20065;-76
2021/03/30 01:46:23;;;;;;;9.48;4.20;;;13.90;60.90;;;;;;4994505;28;20042;-76
2021/03/30 01:48:49;;;;;;;8.80;4.32;;;13.80;61.10;;;;;;4994830;28;20079;-76
2021/03/30 01:51:17;;;;;;;8.23;3.83;;;13.80;61.40;;;;;;4994483;28;20039;-75
2021/03/30 01:53:44;;;;;;;8.93;3.83;;;13.80;61.50;;;;;;4994239;28;20046;-75
2021/03/30 01:56:12;;;;;;;9.02;4.50;;;13.80;61.60;;;;;;4994417;28;20046;-75
2021/03/30 01:58:38;;;;;;;10.77;4.20;;;13.70;61.70;;;;;;4994999;28;20046;-76
2021/03/30 02:01:05;;;;;;;7.97;4.22;;;13.60;61.90;;;;;;4994418;28;20038;-76
2021/03/30 02:03:31;;;;;;;15.02;4.32;;;13.60;62.00;;;;;;4994639;28;20049;-76
2021/03/30 02:05:59;;;;;;;14.13;3.92;;;13.50;61.90;;;;;;4994266;28;20041;-76
2021/03/30 02:08:31;;;;;;;14.77;3.90;;;13.50;61.90;;;;;;4994275;28;20097;-75
2021/03/30 02:10:57;;;;;;;10.20;4.18;;;13.50;62.20;;;;;;4994138;28;20506;-75
2021/03/30 02:13:33;;;;;;;10.50;4.18;;;13.50;62.50;;;;;;4994215;28;20038;-75
2021/03/30 02:16:19;;;;;;;9.82;4.05;;;13.50;62.80;;;;;;4994326;28;20038;-75
2021/03/30 02:18:58;;;;;;;9.02;3.83;;;13.50;62.90;;;;;;4994792;28;20042;-75
2021/03/30 02:21:33;;;;;;;7.15;3.55;;;13.50;63.10;;;;;;4994735;28;20042;-76
2021/03/30 02:24:05;;;;;;;11.98;4.57;;;13.50;63.10;;;;;;4994219;28;20046;-76
2021/03/30 02:26:33;;;;;;;10.82;3.92;;;13.40;63.30;;;;;;4994443;28;20045;-76
2021/03/30 02:29:00;;;;;;;13.48;4.18;;;13.40;63.60;;;;;;4996348;28;20047;-76
2021/03/30 02:31:31;;;;;;;7.28;4.03;;;13.40;63.70;;;;;;4997719;28;20126;-76
2021/03/30 02:34:01;;;;;;;7.20;3.28;;;13.30;63.90;;;;;;4997858;28;20042;-76
2021/03/30 02:36:28;;;;;;;11.20;4.00;;;13.30;64.10;;;;;;4997489;28;20121;-76
2021/03/30 02:38:59;;;;;;;11.05;4.22;;;13.30;64.20;;;;;;4979749;28;20085;-76
2021/03/30 02:41:29;;;;;;;10.50;3.83;;;13.30;64.20;;;;;;4997384;28;20112;-76
2021/03/30 02:43:59;;;;;;;9.73;4.13;;;13.20;64.30;;;;;;4998383;28;20035;-76
2021/03/30 02:46:26;;;;;;;7.78;3.80;;;13.20;64.40;;;;;;4997344;28;20042;-76
2021/03/30 02:48:53;;;;;;;7.65;3.90;;;13.20;64.60;;;;;;4979830;28;20114;-76
2021/03/30 02:51:23;;;;;;;8.23;4.10;;;13.10;64.80;;;;;;4980599;28;20042;-76
2021/03/30 02:53:50;;;;;;;11.95;4.10;;;13.00;65.20;;;;;;5012111;28;20042;-76
2021/03/30 02:56:16;;;;;;;12.98;4.43;;;13.00;65.30;;;;;;4997018;28;20503;-76
2021/03/30 02:58:43;;;;;;;12.98;4.03;;;13.00;65.60;;;;;;4997008;28;20042;-76
2021/03/30 03:01:11;;;;;;;10.73;4.28;;;12.90;65.80;;;;;;4996980;28;20049;-76
2021/03/30 03:03:39;;;;;;;15.38;4.30;;;12.90;65.80;;;;;;4996875;28;20050;-76
2021/03/30 03:06:05;;;;;;;10.45;3.95;;;12.80;65.90;;;;;;4979256;28;20523;-75
2021/03/30 03:08:31;;;;;;;9.15;4.18;;;12.80;65.90;;;;;;4996864;28;20089;-76
2021/03/30 03:10:59;;;;;;;8.55;4.07;;;12.80;66.00;;;;;;4996740;28;20042;-76
2021/03/30 03:13:26;;;;;;;11.80;4.22;;;12.70;66.00;;;;;;4996596;28;20069;-75
2021/03/30 03:15:52;;;;;;;8.65;3.92;;;12.80;66.20;;;;;;4996812;28;20046;-75
2021/03/30 03:18:19;;;;;;;10.98;4.40;;;12.70;66.50;;;;;;4996543;28;20507;-75
2021/03/30 03:20:47;;;;;;;7.63;3.80;;;12.70;66.70;;;;;;4978777;28;20507;-75
2021/03/30 03:23:14;;;;;;;9.90;4.15;;;12.70;66.60;;;;;;4996519;28;20133;-76
2021/03/30 03:25:41;;;;;;;8.38;3.85;;;12.60;66.70;;;;;;4996302;28;20042;-75
2021/03/30 03:28:06;;;;;;;9.30;4.10;;;12.60;66.90;;;;;;4996621;28;20042;-76
2021/03/30 03:30:32;;;;;;;9.40;3.90;;;12.60;66.80;;;;;;4996764;28;20031;-76
2021/03/30 03:33:09;;;;;;;11.00;4.05;;;12.70;66.80;;;;;;4996500;28;20042;-76
2021/03/30 03:35:35;;;;;;;9.45;4.00;;;12.70;66.80;;;;;;4996367;28;20129;-76
2021/03/30 03:38:02;;;;;;;9.40;4.32;;;12.60;66.80;;;;;;4996176;28;20180;-75
2021/03/30 03:40:29;;;;;;;13.30;4.22;;;12.60;66.80;;;;;;4994823;28;20057;-75
2021/03/30 03:42:55;;;;;;;9.93;4.05;;;12.70;66.80;;;;;;4996413;28;20112;-75
2021/03/30 03:45:21;;;;;;;9.48;4.13;;;12.60;66.90;;;;;;4996297;28;20046;-76
2021/03/30 03:47:47;;;;;;;8.77;4.22;;;12.60;66.80;;;;;;4996594;28;20030;-75
2021/03/30 03:50:13;;;;;;;10.10;4.05;;;12.60;66.90;;;;;;4996879;28;20038;-75
2021/03/30 03:52:58;;;;;;;13.25;4.10;;;12.60;67.00;;;;;;4996297;28;20490;-75
2021/03/30 03:55:25;;;;;;;12.63;4.20;;;12.50;67.20;;;;;;5011131;28;20048;-76
2021/03/30 03:57:59;;;;;;;11.20;4.20;;;12.50;67.30;;;;;;4996707;28;20061;-75
2021/03/30 04:00:26;;;;;;;12.73;4.53;;;12.50;67.50;;;;;;4996327;28;20042;-75
2021/03/30 04:03:00;;;;;;;8.27;3.95;;;12.40;67.60;;;;;;4996248;28;20046;-75
2021/03/30 04:05:34;;;;;;;11.48;4.53;;;12.40;68.00;;;;;;4995992;28;20144;-75
2021/03/30 04:08:07;;;;;;;9.80;4.47;;;12.40;68.20;;;;;;4978027;28;20419;-76
2021/03/30 04:10:35;;;;;;;9.10;4.50;;;12.30;68.30;;;;;;4995819;28;20046;-75
2021/03/30 04:13:03;;;;;;;9.73;4.93;;;12.30;68.50;;;;;;4995865;28;20114;-75
2021/03/30 04:15:29;;;;;;;7.50;4.32;;;12.30;68.60;;;;;;4996124;28;20399;-76
2021/03/30 04:17:55;;;;;;;10.48;4.22;;;12.30;68.70;;;;;;4995882;28;20041;-75
2021/03/30 04:20:21;;;;;;;9.85;4.13;;;12.30;68.80;;;;;;4995973;28;20049;-76
2021/03/30 04:22:57;;;;;;;9.73;4.28;;;12.30;68.90;;;;;;4996026;28;20045;-76
2021/03/30 04:25:23;;;;;;;11.60;4.63;;;12.30;69.00;;;;;;4994985;28;20053;-76
2021/03/30 04:27:49;;;;;;;9.82;4.28;;;12.20;69.10;;;;;;4995737;28;20042;-75
2021/03/30 04:30:16;;;;;;;9.35;4.43;;;12.20;69.20;;;;;;4978474;28;20030;-75
2021/03/30 04:32:42;;;;;;;5.93;4.13;;;12.20;69.30;;;;;;4995842;28;20125;-76
2021/03/30 04:35:09;;;;;;;13.75;4.43;;;12.10;69.40;;;;;;4977981;28;20559;-76
2021/03/30 04:37:35;;;;;;;8.43;4.38;;;12.10;69.60;;;;;;4995461;28;20133;-76
2021/03/30 04:40:01;;;;;;;8.90;4.57;;;12.10;69.80;;;;;;4995233;28;20078;-76
2021/03/30 04:42:28;;;;;;;9.77;4.80;;;12.10;69.90;;;;;;4996036;28;20038;-77
2021/03/30 04:44:54;;;;;;;17.48;4.50;;;12.00;69.90;;;;;;4995077;28;20052;-75
2021/03/30 04:47:21;;;;;;;13.45;4.50;;;12.00;70.00;;;;;;4993809;28;20046;-77
2021/03/30 04:49:47;;;;;;;8.82;4.05;;;12.00;70.10;;;;;;4994700;28;20073;-76
2021/03/30 04:52:13;;;;;;;9.00;4.20;;;11.90;70.00;;;;;;4994598;28;20049;-75
2021/03/30 04:54:39;;;;;;;12.80;4.13;;;11.90;70.40;;;;;;4977272;28;20599;-77
2021/03/30 04:57:06;;;;;;;11.10;4.25;;;12.00;70.00;;;;;;4994856;28;20077;-77
2021/03/30 04:59:32;;;;;;;8.63;4.70;;;11.90;70.10;;;;;;4977092;28;20503;-77
2021/03/30 05:01:57;;;;;;;10.35;4.88;;;11.80;70.10;;;;;;4994932;28;20038;-77
2021/03/30 05:04:23;;;;;;;9.73;4.35;;;11.90;70.20;;;;;;4996401;28;20042;-78
2021/03/30 05:06:49;;;;;;;12.38;5.05;;;11.90;70.30;;;;;;4994784;28;20034;-79
2021/03/30 05:09:15;;;;;;;10.95;4.25;;;11.80;70.20;;;;;;4994949;28;20037;-78
2021/03/30 05:11:41;;;;;;;10.35;4.30;;;11.80;70.30;;;;;;4995310;28;20053;-78
2021/03/30 05:14:06;;;;;;;11.20;4.65;;;11.80;69.80;;;;;;4994715;28;20447;-78
2021/03/30 05:16:33;;;;;;;9.60;4.40;;;11.90;70.00;;;;;;4993546;28;20080;-77
2021/03/30 05:18:58;;;;;;;10.50;4.18;;;11.90;69.50;;;;;;4995225;28;20045;-78
2021/03/30 05:21:24;;;;;;;14.48;5.05;;;11.90;69.30;;;;;;4995072;28;20042;-78
2021/03/30 05:23:51;;;;;;;13.93;4.80;;;11.90;69.20;;;;;;4977038;28;20030;-78
2021/03/30 05:26:17;;;;;;;11.23;4.70;;;11.90;69.30;;;;;;4994297;28;20121;-79
2021/03/30 05:28:42;;;;;;;14.27;5.25;;;11.90;69.20;;;;;;4993024;28;20462;-78
2021/03/30 05:31:09;;;;;;;15.90;5.65;;;11.90;69.10;;;;;;4994644;28;20049;-79
2021/03/30 05:33:35;;;;;;;20.83;5.30;;;11.90;69.10;;;;;;4994564;28;20171;-79
2021/03/30 05:36:01;;;;;;;11.77;4.30;;;11.90;69.20;;;;;;4994406;28;20088;-78
2021/03/30 05:38:27;;;;;;;17.55;5.07;;;11.90;68.90;;;;;;4994845;28;20042;-79
2021/03/30 05:40:55;;;;;;;10.98;4.40;;;11.90;68.90;;;;;;4977047;28;20057;-79
2021/03/30 05:43:21;;;;;;;11.35;5.07;;;11.80;69.00;;;;;;4977476;28;20046;-79
2021/03/30 05:45:47;;;;;;;9.32;4.07;;;11.80;69.10;;;;;;4977126;28;20046;-80
2021/03/30 05:48:15;;;;;;;11.90;4.70;;;11.80;69.00;;;;;;4993319;28;20510;-79
2021/03/30 05:50:43;;;;;;;12.95;4.45;;;11.70;69.10;;;;;;4993304;28;20339;-80
2021/03/30 05:53:11;;;;;;;10.02;4.72;;;11.70;69.00;;;;;;4994659;28;20052;-79
2021/03/30 05:55:43;;;;;;;12.25;4.45;;;11.70;69.20;;;;;;4994713;28;20050;-80
2021/03/30 05:58:10;;;;;;;9.05;4.78;;;11.70;69.00;;;;;;4995188;28;20068;-82
2021/03/30 06:00:44;;;;;;;13.07;5.10;;;11.60;69.10;;;;;;4994686;28;20112;-79
2021/03/30 06:03:14;;;;;;;13.73;4.70;;;11.60;69.00;;;;;;4995694;28;20125;-79
2021/03/30 06:05:41;;;;;;;7.30;4.45;;;11.60;69.20;;;;;;4997024;28;20081;-85
2021/03/30 06:08:08;;;;;;;17.23;5.40;;;11.60;68.80;;;;;;4981015;28;20046;-84
2021/03/30 06:10:35;;;;;;;14.75;4.97;;;11.60;68.60;;;;;;4996940;28;20038;-85
2021/03/30 06:13:03;;;;;;;10.45;4.80;;;11.60;68.70;;;;;;4996954;28;20483;-81
2021/03/30 06:15:31;;;;;;;10.63;4.60;;;11.60;68.30;;;;;;4997089;28;20133;-79
2021/03/30 06:17:59;;;;;;;18.00;5.05;;;11.60;68.40;;;;;;4998040;28;20046;-81
2021/03/30 06:20:33;;;;;;;8.95;3.97;;;11.60;68.10;;;;;;4980561;28;20136;-79
2021/03/30 06:23:05;;;;;;;10.68;3.92;;;11.70;67.80;;;;;;4996518;28;20085;-80
2021/03/30 06:25:46;;;;;;;23.02;6.15;;;11.80;67.60;;;;;;4996055;28;20047;-79
2021/03/30 06:28:21;;;;;;;12.77;4.18;;;11.80;67.30;;;;;;4997831;28;20032;-79
2021/03/30 06:30:59;;;;;;;13.38;5.10;;;11.80;67.20;;;;;;4996583;28;20475;-79
2021/03/30 06:33:27;;;;;;;11.80;5.68;;;11.90;66.70;;;;;;4996751;28;20034;-79
2021/03/30 06:36:21;;;;;;;13.55;4.93;;;11.90;66.80;;;;;;4996553;28;20049;-79
2021/03/30 06:38:58;;;;;;;22.85;6.30;;;11.90;66.60;;;;;;4996213;28;20042;-79
2021/03/30 06:44:28;;;;;;;;;;;12.00;66.40;;;;;;4978100;28;20408;-79
2021/03/30 06:47:07;;;;;;;13.23;4.38;;;12.00;66.40;;;;;;4977339;28;20335;-80
2021/03/30 06:49:37;;;;;;;9.90;4.50;;;12.00;66.20;;;;;;4977621;28;20027;-80
2021/03/30 06:52:18;;;;;;;11.80;4.40;;;12.10;66.00;;;;;;4976437;28;20043;-80
2021/03/30 06:54:54;;;;;;;18.15;5.00;;;12.10;65.90;;;;;;4992590;28;20121;-79
2021/03/30 06:57:48;;;;;;;16.65;5.07;;;12.20;66.00;;;;;;4976624;28;20038;-79
2021/03/30 07:00:26;;;;;;;11.98;4.55;;;12.20;66.10;;;;;;4992442;28;20113;-79
2021/03/30 07:02:54;;;;;;;12.32;5.20;;;12.20;66.00;;;;;;4976757;28;20049;-79
2021/03/30 07:05:29;;;;;;;17.83;4.55;;;12.30;65.50;;;;;;4977379;28;20093;-79
2021/03/30 07:08:03;;;;;;;18.55;5.10;;;12.50;65.40;;;;;;4992384;28;20043;-79
2021/03/30 07:10:30;;;;;;;12.00;4.68;;;12.50;65.00;;;;;;4992078;28;20030;-79
2021/03/30 07:12:57;;;;;;;11.55;5.65;;;12.50;65.00;;;;;;4977590;28;20042;-79
2021/03/30 07:15:25;;;;;;;13.13;4.93;;;12.60;65.00;;;;;;4977264;28;20117;-79
2021/03/30 07:18:04;;;;;;;12.07;5.28;;;12.70;64.80;;;;;;4976748;28;20147;-79
2021/03/30 07:21:02;;;;;;;13.20;4.38;;;12.70;64.40;;;;;;4977495;28;20496;-79
2021/03/30 07:23:31;;;;;;;11.93;5.13;;;12.70;64.30;;;;;;4991734;28;20053;-79
2021/03/30 07:26:05;;;;;;;15.30;4.93;;;12.80;64.00;;;;;;4976838;28;20038;-78
2021/03/30 07:28:48;;;;;;;12.82;4.65;;;12.80;64.00;;;;;;4991625;28;20049;-78
2021/03/30 07:31:28;;;;;;;12.18;5.68;;;12.90;63.80;;;;;;4976883;28;20038;-78
2021/03/30 07:34:08;;;;;;;14.98;5.28;;;13.00;63.50;;;;;;4991741;28;20034;-78
2021/03/30 07:36:45;;;;;;;13.95;5.47;;;13.20;63.30;;;;;;4992356;28;20034;-78
2021/03/30 07:39:15;;;;;;;13.23;4.80;;;13.20;62.60;;;;;;4977192;28;20516;-78
2021/03/30 07:41:41;;;;;;;10.65;5.00;;;13.40;62.50;;;;;;4975162;28;20227;-80
2021/03/30 07:44:07;;;;;;;10.98;5.03;;;13.40;62.30;;;;;;4976718;28;20518;-78
2021/03/30 07:46:34;;;;;;;17.25;4.47;;;13.50;62.10;;;;;;4992013;28;20452;-80
2021/03/30 07:49:00;;;;;;;13.63;4.90;;;13.60;61.40;;;;;;4976550;28;20039;-78
2021/03/30 07:51:41;;;;;;;15.80;4.30;;;13.80;60.80;;;;;;4976702;28;20059;-78
2021/03/30 07:54:08;;;;;;;16.60;4.90;;;13.90;60.10;;;;;;4991176;28;20039;-78
2021/03/30 07:56:40;;;;;;;13.07;4.15;;;14.10;59.70;;;;;;4975644;28;20109;-78
2021/03/30 07:59:06;;;;;;;16.00;4.07;;;14.10;58.50;;;;;;4976733;28;20053;-78
2021/03/30 08:01:34;;;;;;;13.45;4.32;;;14.30;58.60;;;;;;4975527;28;20551;-80
2021/03/30 08:04:02;;;;;;;11.40;4.90;;;14.40;57.80;;;;;;4991524;28;20170;-79
2021/03/30 08:06:32;;;;;;;11.50;4.13;;;14.50;57.70;;;;;;4992005;28;20039;-80
2021/03/30 08:09:07;;;;;;;12.90;4.30;;;14.60;57.00;;;;;;4974582;28;20038;-78
2021/03/30 08:11:40;;;;;;;11.18;4.35;;;14.70;56.90;;;;;;4975774;28;20031;-79
2021/03/30 08:14:18;;;;;;;9.30;3.75;;;14.80;56.80;;;;;;4975942;28;20035;-79
2021/03/30 08:16:51;;;;;;;10.40;3.72;;;14.90;56.60;;;;;;4974589;28;20065;-79
2021/03/30 08:19:18;;;;;;;8.77;3.83;;;15.00;56.30;;;;;;4976138;28;20535;-79
2021/03/30 08:21:59;;;;;;;16.70;6.38;;;15.00;56.30;;;;;;4974631;28;20033;-79
2021/03/30 08:24:45;;;;;;;12.30;4.22;;;15.00;56.70;;;;;;4973980;28;20496;-79
2021/03/30 08:27:32;;;;;;;11.63;4.70;;;15.20;55.90;;;;;;4964871;28;20093;-78
2021/03/30 08:29:59;;;;;;;9.05;3.78;;;15.20;56.10;;;;;;4976510;28;20034;-79
2021/03/30 08:32:31;;;;;;;10.40;3.60;;;15.30;55.70;;;;;;4991099;28;20041;-79
2021/03/30 08:34:57;;;;;;;18.75;4.63;;;15.30;55.50;;;;;;4976022;28;20038;-79
2021/03/30 08:37:23;;;;;;;11.30;3.80;;;15.40;55.60;;;;;;4975742;28;20039;-79
2021/03/30 08:39:49;;;;;;;9.18;4.00;;;15.60;55.20;;;;;;4991406;28;20050;-79
2021/03/30 08:42:17;;;;;;;10.63;3.50;;;15.70;55.10;;;;;;4993874;28;20141;-79
2021/03/30 08:44:59;;;;;;;14.52;4.78;;;15.70;54.80;;;;;;4994886;28;20042;-79
2021/03/30 08:47:34;;;;;;;11.27;4.10;;;15.80;55.10;;;;;;4995075;28;20046;-79
2021/03/30 08:50:32;;;;;;;11.57;4.00;;;15.80;55.20;;;;;;4995224;28;20062;-79
2021/03/30 08:53:00;;;;;;;10.05;3.83;;;16.00;55.00;;;;;;4982392;28;20038;-79
2021/03/30 08:55:37;;;;;;;15.48;5.03;;;16.10;54.70;;;;;;4993446;28;20517;-79
2021/03/30 08:58:03;;;;;;;10.32;3.88;;;16.30;54.80;;;;;;4993460;28;20396;-79
2021/03/30 09:00:29;;;;;;;7.80;3.50;;;16.40;54.50;;;;;;4994983;28;20038;-79
2021/03/30 09:03:04;;;;;;;11.13;3.60;;;16.50;54.20;;;;;;4977954;28;20046;-79
2021/03/30 09:05:37;;;;;;;10.02;3.67;;;16.60;54.30;;;;;;4995749;28;20042;-79
2021/03/30 09:08:03;;;;;;;12.23;3.85;;;16.70;54.20;;;;;;4994887;28;20042;-79
2021/03/30 09:10:29;;;;;;;16.77;3.72;;;16.70;53.90;;;;;;4994724;28;20092;-79
2021/03/30 09:13:17;;;;;;;8.45;3.83;;;16.80;54.20;;;;;;4977348;28;20499;-79
2021/03/30 09:15:44;;;;;;;12.30;3.63;;;16.90;54.10;;;;;;4994965;28;20038;-79
2021/03/30 09:18:11;;;;;;;14.15;4.07;;;17.10;53.80;;;;;;4994788;28;20069;-79
2021/03/30 09:20:37;;;;;;;10.73;3.60;;;17.20;53.40;;;;;;4994882;28;20037;-79
2021/03/30 09:23:17;;;;;;;9.52;3.28;;;17.30;53.00;;;;;;4994668;28;20046;-79
2021/03/30 09:25:45;;;;;;;13.60;3.63;;;17.30;53.20;;;;;;4993004;28;20038;-79
2021/03/30 09:28:22;;;;;;;14.02;4.03;;;17.50;53.10;;;;;;4977237;28;20506;-79
2021/03/30 09:30:49;;;;;;;12.90;4.43;;;17.60;52.20;;;;;;4977110;28;20125;-79
2021/03/30 09:33:15;;;;;;;15.85;4.32;;;17.60;52.10;;;;;;4994431;28;20373;-79
2021/03/30 09:35:41;;;;;;;11.77;4.10;;;17.70;52.10;;;;;;4994310;28;20050;-79
2021/03/30 09:38:08;;;;;;;10.95;3.80;;;17.80;51.90;;;;;;4997277;28;20046;-79
2021/03/30 09:40:39;;;;;;;6.63;3.20;;;18.00;51.80;;;;;;4997911;28;20487;-79
2021/03/30 09:43:16;;;;;;;21.10;4.88;;;18.10;51.50;;;;;;4998777;28;20042;-79
2021/03/30 09:45:43;;;;;;;12.07;3.85;;;18.20;51.50;;;;;;4998609;28;20042;-79
2021/03/30 09:48:15;;;;;;;13.40;4.35;;;18.20;51.20;;;;;;4998317;28;20108;-79
2021/03/30 09:50:51;;;;;;;10.20;3.75;;;18.30;51.40;;;;;;4980404;28;20034;-78
2021/03/30 09:53:20;;;;;;;19.30;4.60;;;18.30;51.40;;;;;;4981712;28;20395;-79
2021/03/30 09:55:46;;;;;;;16.13;4.65;;;18.60;51.20;;;;;;4997863;28;20046;-79
2021/03/30 09:58:17;;;;;;;16.88;4.45;;;18.60;50.90;;;;;;4997021;28;20038;-79
2021/03/30 10:00:57;;;;;;;11.23;3.75;;;18.70;50.50;;;;;;4998353;28;20038;-78
2021/03/30 10:03:24;;;;;;;17.83;4.32;;;19.00;50.10;;;;;;4998417;28;20038;-79
2021/03/30 10:05:51;;;;;;;15.35;4.40;;;19.10;50.20;;;;;;4997942;28;20038;-79
2021/03/30 10:08:27;;;;;;;12.57;4.10;;;19.30;50.30;;;;;;4980564;28;20038;-79
2021/03/30 10:10:56;;;;;;;18.33;4.20;;;19.30;50.10;;;;;;4997664;28;20034;-78
2021/03/30 10:13:37;;;;;;;9.52;3.97;;;19.30;50.50;;;;;;4998120;28;20031;-78
2021/03/30 10:16:08;;;;;;;13.40;3.75;;;19.30;50.40;;;;;;4998092;28;20046;-78
2021/03/30 10:18:39;;;;;;;10.40;3.28;;;19.40;50.60;;;;;;4997902;28;20052;-78
2021/03/30 10:21:13;;;;;;;7.70;4.13;;;19.60;50.60;;;;;;4997550;28;20041;-79
2021/03/30 10:23:50;;;;;;;9.23;3.50;;;19.70;50.20;;;;;;4980385;28;20042;-81
2021/03/30 10:26:18;;;;;;;12.60;3.63;;;19.80;50.20;;;;;;4996783;28;20042;-81
2021/03/30 10:28:56;;;;;;;14.18;3.60;;;19.90;49.70;;;;;;4998062;28;20022;-80
2021/03/30 10:34:34;;;;;;;12.27;3.33;;;20.00;49.30;;;;;;4998177;28;20137;-80
2021/03/30 10:37:08;;;;;;;12.57;3.50;;;20.10;49.30;;;;;;4995590;28;20100;-80
2021/03/30 10:39:41;;;;;;;14.48;3.20;;;20.30;49.30;;;;;;4980147;28;20495;-80
2021/03/30 10:42:08;;;;;;;10.77;3.40;;;20.60;48.60;;;;;;4997952;28;20054;-81
2021/03/30 10:44:40;;;;;;;12.18;3.50;;;20.70;48.20;;;;;;4979835;28;20038;-80
2021/03/30 10:47:23;;;;;;;10.88;3.17;;;20.70;48.70;;;;;;4995986;28;20045;-81
2021/03/30 10:49:51;;;;;;;15.02;3.60;;;20.90;48.30;;;;;;4994944;28;20065;-80
2021/03/30 10:52:20;;;;;;;11.60;4.35;;;20.80;48.00;;;;;;4997537;28;20042;-82
2021/03/30 10:54:48;;;;;;;18.73;4.85;;;20.90;47.90;;;;;;4997055;28;20074;-81
2021/03/30 10:57:15;;;;;;;16.85;4.25;;;21.00;47.70;;;;;;4995857;28;20040;-80
2021/03/30 10:59:43;;;;;;;16.77;3.78;;;21.10;47.90;;;;;;4997647;28;20046;-81
2021/03/30 11:02:10;;;;;;;8.00;3.45;;;21.30;48.10;;;;;;4995847;28;20436;-80
2021/03/30 11:04:38;;;;;;;13.18;3.40;;;21.30;48.30;;;;;;4997240;28;20039;-79
2021/03/30 11:07:05;;;;;;;7.20;3.03;;;21.50;47.40;;;;;;4997310;28;20562;-80
2021/03/30 11:09:31;;;;;;;9.38;4.18;;;21.70;46.80;;;;;;4997153;28;20070;-80
2021/03/30 11:11:57;;;;;;;9.25;2.75;;;21.80;46.60;;;;;;4997135;28;20038;-80
2021/03/30 11:14:23;;;;;;;12.32;5.93;;;21.80;46.80;;;;;;4997269;28;20046;-80
2021/03/30 11:16:49;;;;;;;15.70;4.10;;;21.70;47.60;;;;;;4997575;28;20056;-80
2021/03/30 11:19:16;;;;;;;11.05;3.25;;;21.80;47.50;;;;;;4979201;28;20425;-82
2021/03/30 11:21:43;;;;;;;13.63;3.63;;;22.00;47.10;;;;;;4995795;28;20034;-80
2021/03/30 11:24:13;;;;;;;12.32;4.10;;;22.00;47.00;;;;;;4996637;28;20035;-80
2021/03/30 11:26:42;;;;;;;14.00;3.97;;;22.20;46.90;;;;;;4996703;28;20042;-80
2021/03/30 11:29:11;;;;;;;10.32;3.28;;;22.30;46.10;;;;;;4995173;28;20129;-80
2021/03/30 11:39:37;;;;;;;6.65;2.90;;;22.30;46.40;;;;;;4996193;28;20088;-79
2021/03/30 11:42:05;;;;;;;17.05;3.47;;;22.50;45.40;;;;;;4995262;28;20112;-79
2021/03/30 11:44:31;;;;;;;13.65;3.75;;;22.70;45.10;;;;;;4996315;28;20157;-79
2021/03/30 11:46:59;;;;;;;15.25;3.10;;;22.60;44.90;;;;;;4996690;28;20506;-79
2021/03/30 11:49:25;;;;;;;13.18;3.22;;;22.60;45.10;;;;;;4996864;28;20034;-79
2021/03/30 11:51:51;;;;;;;9.50;2.97;;;22.50;45.30;;;;;;4996914;28;20072;-79
2021/03/30 11:54:17;;;;;;;10.68;2.80;;;22.60;45.00;;;;;;4996501;28;20497;-79
2021/03/30 11:56:43;;;;;;;9.40;2.75;;;22.70;44.50;;;;;;4996429;28;20049;-80
2021/03/30 11:59:09;;;;;;;6.32;2.75;;;22.80;44.60;;;;;;4978601;28;20069;-80
2021/03/30 12:01:34;;;;;;;9.80;3.70;;;22.90;43.80;;;;;;4993909;28;20073;-80
2021/03/30 12:04:00;;;;;;;9.93;2.92;;;22.80;43.80;;;;;;4996155;28;20083;-81
2021/03/30 12:06:26;;;;;;;8.77;2.95;;;23.10;43.60;;;;;;4996320;28;20476;-81
2021/03/30 12:08:52;;;;;;;4.95;2.75;;;23.20;43.40;;;;;;4994893;28;20030;-80
2021/03/30 12:11:18;;;;;;;8.65;2.70;;;23.20;44.00;;;;;;4996406;28;20045;-81
2021/03/30 12:13:44;;;;;;;10.75;2.90;;;23.30;43.70;;;;;;4994734;28;20064;-81
2021/03/30 12:16:11;;;;;;;8.30;2.75;;;23.30;42.80;;;;;;4996015;28;20050;-81
2021/03/30 12:18:37;;;;;;;10.43;2.88;;;23.40;43.50;;;;;;4995558;28;20104;-81
2021/03/30 12:21:03;;;;;;;7.78;2.83;;;23.40;43.70;;;;;;4978405;28;20558;-81
2021/03/30 12:23:36;;;;;;;8.05;2.88;;;23.60;42.40;;;;;;5112756;27;20384;-81
2021/03/30 12:26:01;;;;;;;10.20;3.13;;;23.70;42.20;;;;;;5110812;28;20043;-82
2021/03/30 12:28:27;;;;;;;6.60;2.97;;;23.90;42.60;;;;;;5112203;28;20032;-82
2021/03/30 12:30:53;;;;;;;16.20;2.85;;;24.00;42.80;;;;;;5110444;28;20039;-83
2021/03/30 12:33:20;;;;;;;24.27;4.47;;;24.00;42.50;;;;;;5111339;28;20036;-83
2021/03/30 12:35:45;;;;;;;11.35;3.55;;;24.00;42.40;;;;;;5110522;28;20042;-83
2021/03/30 12:38:11;;;;;;;14.75;3.90;;;24.10;42.50;;;;;;5110557;28;20123;-82
2021/03/30 12:40:37;;;;;;;24.92;8.20;;;24.40;42.10;;;;;;5110336;28;20032;-82
2021/03/30 12:43:06;;;;;;;11.68;2.72;;;24.30;42.20;;;;;;5110347;28;20035;-82
2021/03/30 12:45:35;;;;;;;19.70;3.50;;;24.40;40.60;;;;;;5111679;28;20173;-82
2021/03/30 12:48:06;;;;;;;12.43;3.03;;;24.40;41.90;;;;;;5110319;28;20028;-82
2021/03/30 12:50:34;;;;;;;13.40;6.70;;;24.40;42.50;;;;;;5112035;28;20065;-82
2021/03/30 12:53:00;;;;;;;12.48;4.20;;;24.60;41.30;;;;;;5111287;28;20101;-82
2021/03/30 12:55:26;;;;;;;9.75;3.00;;;24.50;41.40;;;;;;5110374;28;20071;-82
2021/03/30 12:57:52;;;;;;;7.15;2.88;;;24.50;42.10;;;;;;5110276;28;20085;-81
2021/03/30 13:00:19;;;;;;;14.25;3.92;;;24.60;41.00;;;;;;5109560;28;20074;-82
2021/03/30 13:02:45;;;;;;;10.20;2.60;;;24.80;40.10;;;;;;5109907;28;20038;-82
2021/03/30 13:05:12;;;;;;;12.32;3.45;;;25.00;39.80;;;;;;5110340;28;20036;-82
2021/03/30 13:07:38;;;;;;;17.73;3.38;;;25.00;39.80;;;;;;5111395;28;20031;-82